Terminal Aerodrome Forecast
Issued by NWS

Home | Current Version | Previous Version | Text Only | Print | Product List | Glossary On
Versions: 1 2 3 4 5 6 7 8 9 10 11 12 13
864
FTUS42 KMHX 221801 CCA
TAFOAJ
TAF COR
KOAJ 221801Z 2218/2318 16005KT P6SM SCT250
     FM222300 16004KT P6SM BKN025
     FM230900 18008KT 6SM -SHRA BKN008 OVC010
     FM231300 18014G20KT 6SM -SHRA OVC015
      AMD LTD TO CLD VIS AND WIND=

USA.gov is the U.S. government's official web portal to all federal, state and local government web resources and services.